sensor_id;sensor_type;location;lat;lon;timestamp;pressure;altitude;pressure_sealevel;temperature;humidity
64460;BME280;50828;53.756;21.140;2023-08-31T00:03:02;98746.39;;;18.19;76.30
64460;BME280;50828;53.756;21.140;2023-08-31T00:08:12;98745.63;;;18.17;76.23
64460;BME280;50828;53.756;21.140;2023-08-31T00:13:21;98750.05;;;18.18;76.30
64460;BME280;50828;53.756;21.140;2023-08-31T00:18:33;98749.48;;;18.16;76.38
64460;BME280;50828;53.756;21.140;2023-08-31T00:23:41;98752.38;;;18.15;76.53
64460;BME280;50828;53.756;21.140;2023-08-31T00:28:52;98752.30;;;18.14;76.36
64460;BME280;50828;53.756;21.140;2023-08-31T00:34:00;98755.34;;;18.14;76.33
64460;BME280;50828;53.756;21.140;2023-08-31T00:39:09;98754.64;;;18.12;76.38
64460;BME280;50828;53.756;21.140;2023-08-31T00:44:19;98754.84;;;18.12;76.23
64460;BME280;50828;53.756;21.140;2023-08-31T00:49:29;98750.67;;;18.09;76.24
64460;BME280;50828;53.756;21.140;2023-08-31T00:54:37;98746.92;;;18.07;76.38
64460;BME280;50828;53.756;21.140;2023-08-31T00:59:44;98743.62;;;18.06;76.25
64460;BME280;50828;53.756;21.140;2023-08-31T01:05:00;98739.46;;;18.03;76.27
64460;BME280;50828;53.756;21.140;2023-08-31T01:10:20;98731.93;;;18.02;76.31
64460;BME280;50828;53.756;21.140;2023-08-31T01:15:31;98736.04;;;17.98;76.25
64460;BME280;50828;53.756;21.140;2023-08-31T01:20:49;98740.27;;;17.96;76.37
64460;BME280;50828;53.756;21.140;2023-08-31T01:26:02;98738.97;;;17.95;76.18
64460;BME280;50828;53.756;21.140;2023-08-31T01:31:10;98736.02;;;17.94;76.13
64460;BME280;50828;53.756;21.140;2023-08-31T01:36:26;98742.77;;;17.94;76.11
64460;BME280;50828;53.756;21.140;2023-08-31T01:41:35;98747.41;;;17.94;76.21
64460;BME280;50828;53.756;21.140;2023-08-31T01:46:51;98744.13;;;17.93;76.28
64460;BME280;50828;53.756;21.140;2023-08-31T01:52:02;98750.89;;;17.93;76.34
64460;BME280;50828;53.756;21.140;2023-08-31T01:57:10;98754.88;;;17.94;76.13
64460;BME280;50828;53.756;21.140;2023-08-31T02:02:44;98758.23;;;17.93;76.06
64460;BME280;50828;53.756;21.140;2023-08-31T02:07:56;98761.63;;;17.93;76.11
64460;BME280;50828;53.756;21.140;2023-08-31T02:13:02;98765.71;;;17.91;76.00
64460;BME280;50828;53.756;21.140;2023-08-31T02:18:11;98764.52;;;17.86;76.02
64460;BME280;50828;53.756;21.140;2023-08-31T02:23:19;98763.71;;;17.81;75.87
64460;BME280;50828;53.756;21.140;2023-08-31T02:28:26;98761.33;;;17.78;75.69
64460;BME280;50828;53.756;21.140;2023-08-31T02:33:35;98764.90;;;17.76;75.75
64460;BME280;50828;53.756;21.140;2023-08-31T02:38:43;98760.73;;;17.73;75.80
64460;BME280;50828;53.756;21.140;2023-08-31T02:43:53;98763.52;;;17.72;75.87
64460;BME280;50828;53.756;21.140;2023-08-31T02:49:01;98761.25;;;17.71;75.88
64460;BME280;50828;53.756;21.140;2023-08-31T02:54:09;98760.88;;;17.71;76.04
64460;BME280;50828;53.756;21.140;2023-08-31T02:59:17;98762.18;;;17.70;75.94
64460;BME280;50828;53.756;21.140;2023-08-31T03:04:25;98763.69;;;17.70;76.00
64460;BME280;50828;53.756;21.140;2023-08-31T03:09:33;98767.66;;;17.69;75.91
64460;BME280;50828;53.756;21.140;2023-08-31T03:14:43;98775.80;;;17.69;75.87
64460;BME280;50828;53.756;21.140;2023-08-31T03:19:51;98777.37;;;17.68;75.95
64460;BME280;50828;53.756;21.140;2023-08-31T03:24:58;98785.65;;;17.67;75.79
64460;BME280;50828;53.756;21.140;2023-08-31T03:30:08;98786.63;;;17.66;75.80
64460;BME280;50828;53.756;21.140;2023-08-31T03:35:16;98788.77;;;17.66;75.87
64460;BME280;50828;53.756;21.140;2023-08-31T03:40:23;98794.55;;;17.65;75.63
64460;BME280;50828;53.756;21.140;2023-08-31T03:45:31;98794.69;;;17.64;75.55
64460;BME280;50828;53.756;21.140;2023-08-31T03:50:40;98796.71;;;17.63;75.68
64460;BME280;50828;53.756;21.140;2023-08-31T03:55:49;98791.00;;;17.61;75.62
64460;BME280;50828;53.756;21.140;2023-08-31T04:00:57;98788.53;;;17.59;75.45
64460;BME280;50828;53.756;21.140;2023-08-31T04:06:06;98787.27;;;17.53;75.41
64460;BME280;50828;53.756;21.140;2023-08-31T04:11:17;98788.98;;;17.52;75.33
64460;BME280;50828;53.756;21.140;2023-08-31T04:16:25;98792.64;;;17.49;75.40
64460;BME280;50828;53.756;21.140;2023-08-31T04:21:32;98789.92;;;17.45;75.39
64460;BME280;50828;53.756;21.140;2023-08-31T04:26:40;98792.12;;;17.45;75.47
64460;BME280;50828;53.756;21.140;2023-08-31T04:31:47;98795.86;;;17.44;75.63
64460;BME280;50828;53.756;21.140;2023-08-31T04:36:55;98805.16;;;17.44;75.47
64460;BME280;50828;53.756;21.140;2023-08-31T04:42:03;98809.84;;;17.43;75.50
64460;BME280;50828;53.756;21.140;2023-08-31T04:47:10;98820.11;;;17.46;75.71
64460;BME280;50828;53.756;21.140;2023-08-31T04:52:18;98823.97;;;17.45;75.58
64460;BME280;50828;53.756;21.140;2023-08-31T04:57:26;98823.77;;;17.42;75.45
64460;BME280;50828;53.756;21.140;2023-08-31T05:02:34;98821.45;;;17.40;75.47
64460;BME280;50828;53.756;21.140;2023-08-31T05:07:42;98818.20;;;17.39;75.57
64460;BME280;50828;53.756;21.140;2023-08-31T05:12:50;98821.87;;;17.38;75.63
64460;BME280;50828;53.756;21.140;2023-08-31T05:17:57;98827.83;;;17.39;75.51
64460;BME280;50828;53.756;21.140;2023-08-31T05:23:05;98826.95;;;17.39;75.44
64460;BME280;50828;53.756;21.140;2023-08-31T05:28:13;98830.99;;;17.37;75.55
64460;BME280;50828;53.756;21.140;2023-08-31T05:33:21;98830.96;;;17.36;75.49
64460;BME280;50828;53.756;21.140;2023-08-31T05:38:31;98842.52;;;17.38;75.58
64460;BME280;50828;53.756;21.140;2023-08-31T05:43:39;98841.77;;;17.40;75.61
64460;BME280;50828;53.756;21.140;2023-08-31T05:48:47;98848.79;;;17.41;75.49
64460;BME280;50828;53.756;21.140;2023-08-31T05:53:55;98851.86;;;17.41;75.72
64460;BME280;50828;53.756;21.140;2023-08-31T05:59:03;98848.50;;;17.40;75.60
64460;BME280;50828;53.756;21.140;2023-08-31T06:04:11;98859.09;;;17.44;75.70
64460;BME280;50828;53.756;21.140;2023-08-31T06:09:18;98864.27;;;17.46;75.56
64460;BME280;50828;53.756;21.140;2023-08-31T06:14:26;98869.57;;;17.46;75.34
64460;BME280;50828;53.756;21.140;2023-08-31T06:19:33;98872.38;;;17.47;75.42
64460;BME280;50828;53.756;21.140;2023-08-31T06:24:42;98861.95;;;17.46;75.35
64460;BME280;50828;53.756;21.140;2023-08-31T06:29:49;98860.02;;;17.43;75.53
64460;BME280;50828;53.756;21.140;2023-08-31T06:34:57;98864.94;;;17.46;75.59
64460;BME280;50828;53.756;21.140;2023-08-31T06:40:05;98871.84;;;17.49;75.41
64460;BME280;50828;53.756;21.140;2023-08-31T06:45:14;98877.79;;;17.50;75.36
64460;BME280;50828;53.756;21.140;2023-08-31T06:50:21;98881.25;;;17.49;75.49
64460;BME280;50828;53.756;21.140;2023-08-31T06:55:28;98874.44;;;17.47;75.29
64460;BME280;50828;53.756;21.140;2023-08-31T07:00:38;98874.86;;;17.47;75.37
64460;BME280;50828;53.756;21.140;2023-08-31T07:05:45;98881.59;;;17.47;75.34
64460;BME280;50828;53.756;21.140;2023-08-31T07:10:53;98887.39;;;17.48;75.51
64460;BME280;50828;53.756;21.140;2023-08-31T07:16:00;98891.05;;;17.51;75.61
64460;BME280;50828;53.756;21.140;2023-08-31T07:21:08;98893.22;;;17.52;75.42
64460;BME280;50828;53.756;21.140;2023-08-31T07:26:19;98893.13;;;17.55;75.50
64460;BME280;50828;53.756;21.140;2023-08-31T07:31:26;98896.71;;;17.59;75.61
64460;BME280;50828;53.756;21.140;2023-08-31T07:36:34;98897.30;;;17.61;75.57
64460;BME280;50828;53.756;21.140;2023-08-31T07:41:42;98899.66;;;17.62;75.72
64460;BME280;50828;53.756;21.140;2023-08-31T07:46:50;98907.17;;;17.57;75.66
64460;BME280;50828;53.756;21.140;2023-08-31T07:51:59;98910.98;;;17.51;75.70
64460;BME280;50828;53.756;21.140;2023-08-31T07:57:06;98915.10;;;17.47;75.90
64460;BME280;50828;53.756;21.140;2023-08-31T08:02:15;98918.70;;;17.42;75.74
64460;BME280;50828;53.756;21.140;2023-08-31T08:07:23;98921.39;;;17.39;75.95
64460;BME280;50828;53.756;21.140;2023-08-31T08:12:38;98929.25;;;17.37;75.73
64460;BME280;50828;53.756;21.140;2023-08-31T08:17:46;98931.87;;;17.33;75.75
64460;BME280;50828;53.756;21.140;2023-08-31T08:22:55;98936.52;;;17.29;75.74
64460;BME280;50828;53.756;21.140;2023-08-31T08:28:04;98939.07;;;17.29;75.88
64460;BME280;50828;53.756;21.140;2023-08-31T08:33:12;98945.61;;;17.29;75.69
64460;BME280;50828;53.756;21.140;2023-08-31T08:38:20;98945.70;;;17.30;75.93
64460;BME280;50828;53.756;21.140;2023-08-31T08:43:29;98949.92;;;17.31;75.70
64460;BME280;50828;53.756;21.140;2023-08-31T08:48:38;98950.52;;;17.32;75.73
64460;BME280;50828;53.756;21.140;2023-08-31T08:53:48;98951.45;;;17.33;75.83
64460;BME280;50828;53.756;21.140;2023-08-31T08:58:58;98950.10;;;17.33;75.85
64460;BME280;50828;53.756;21.140;2023-08-31T09:04:07;98964.59;;;17.36;75.75
64460;BME280;50828;53.756;21.140;2023-08-31T09:09:14;98967.38;;;17.34;75.84
64460;BME280;50828;53.756;21.140;2023-08-31T09:14:22;98974.90;;;17.36;75.62
64460;BME280;50828;53.756;21.140;2023-08-31T09:19:30;98978.83;;;17.36;75.84
64460;BME280;50828;53.756;21.140;2023-08-31T09:24:43;98981.88;;;17.39;75.91
64460;BME280;50828;53.756;21.140;2023-08-31T09:29:55;98989.04;;;17.43;75.79
64460;BME280;50828;53.756;21.140;2023-08-31T09:35:04;98991.59;;;17.45;75.82
64460;BME280;50828;53.756;21.140;2023-08-31T09:40:27;98987.48;;;17.41;75.61
64460;BME280;50828;53.756;21.140;2023-08-31T09:45:35;98992.39;;;17.48;75.72
64460;BME280;50828;53.756;21.140;2023-08-31T09:50:52;99004.16;;;17.52;75.63
64460;BME280;50828;53.756;21.140;2023-08-31T09:56:03;99008.58;;;17.52;75.67
64460;BME280;50828;53.756;21.140;2023-08-31T10:01:11;99014.34;;;17.55;75.69
64460;BME280;50828;53.756;21.140;2023-08-31T10:06:33;99019.73;;;17.61;75.43
64460;BME280;50828;53.756;21.140;2023-08-31T10:11:42;99030.40;;;17.65;75.15
64460;BME280;50828;53.756;21.140;2023-08-31T10:16:51;99033.29;;;17.63;74.67
64460;BME280;50828;53.756;21.140;2023-08-31T10:21:59;99037.80;;;17.58;74.35
64460;BME280;50828;53.756;21.140;2023-08-31T10:27:22;99039.42;;;17.52;74.15
64460;BME280;50828;53.756;21.140;2023-08-31T10:32:29;99040.17;;;17.47;74.32
64460;BME280;50828;53.756;21.140;2023-08-31T10:37:37;99045.55;;;17.44;74.09
64460;BME280;50828;53.756;21.140;2023-08-31T10:42:48;99051.46;;;17.37;74.25
64460;BME280;50828;53.756;21.140;2023-08-31T10:48:15;99051.45;;;17.27;74.21
64460;BME280;50828;53.756;21.140;2023-08-31T10:53:31;99061.57;;;17.23;74.48
64460;BME280;50828;53.756;21.140;2023-08-31T10:58:41;99071.99;;;17.28;74.67
64460;BME280;50828;53.756;21.140;2023-08-31T11:04:06;99071.46;;;17.30;74.42
64460;BME280;50828;53.756;21.140;2023-08-31T11:09:21;99071.05;;;17.33;74.54
64460;BME280;50828;53.756;21.140;2023-08-31T11:14:28;99067.52;;;17.37;74.17
64460;BME280;50828;53.756;21.140;2023-08-31T11:19:37;99073.53;;;17.42;73.63
64460;BME280;50828;53.756;21.140;2023-08-31T11:24:45;99067.13;;;17.46;72.68
64460;BME280;50828;53.756;21.140;2023-08-31T11:29:53;99061.08;;;17.50;72.45
64460;BME280;50828;53.756;21.140;2023-08-31T11:35:02;99065.99;;;17.57;72.34
64460;BME280;50828;53.756;21.140;2023-08-31T11:40:14;99066.59;;;17.67;72.19
64460;BME280;50828;53.756;21.140;2023-08-31T11:45:29;99070.62;;;17.80;72.08
64460;BME280;50828;53.756;21.140;2023-08-31T11:50:38;99072.88;;;17.93;71.97
64460;BME280;50828;53.756;21.140;2023-08-31T11:55:52;99073.52;;;18.08;71.46
64460;BME280;50828;53.756;21.140;2023-08-31T12:01:00;99077.55;;;18.21;71.06
64460;BME280;50828;53.756;21.140;2023-08-31T12:06:09;99063.52;;;18.29;71.12
64460;BME280;50828;53.756;21.140;2023-08-31T12:11:17;99071.14;;;18.51;70.80
64460;BME280;50828;53.756;21.140;2023-08-31T12:16:25;99078.96;;;18.66;69.95
64460;BME280;50828;53.756;21.140;2023-08-31T12:21:38;99076.44;;;18.76;69.49
64460;BME280;50828;53.756;21.140;2023-08-31T12:26:45;99072.16;;;18.85;69.45
64460;BME280;50828;53.756;21.140;2023-08-31T12:31:53;99070.23;;;18.97;69.26
64460;BME280;50828;53.756;21.140;2023-08-31T12:37:00;99064.69;;;19.09;68.41
64460;BME280;50828;53.756;21.140;2023-08-31T12:42:10;99063.29;;;19.16;68.01
64460;BME280;50828;53.756;21.140;2023-08-31T12:47:28;99061.88;;;19.24;67.30
64460;BME280;50828;53.756;21.140;2023-08-31T12:52:35;99062.73;;;19.32;67.28
64460;BME280;50828;53.756;21.140;2023-08-31T12:57:49;99061.23;;;19.43;67.09
64460;BME280;50828;53.756;21.140;2023-08-31T13:02:57;99062.86;;;19.56;66.68
64460;BME280;50828;53.756;21.140;2023-08-31T13:08:05;99062.61;;;19.64;65.60
64460;BME280;50828;53.756;21.140;2023-08-31T13:13:13;99067.73;;;19.69;64.98
64460;BME280;50828;53.756;21.140;2023-08-31T13:18:20;99067.29;;;19.73;64.00
64460;BME280;50828;53.756;21.140;2023-08-31T13:23:28;99067.90;;;19.76;63.33
64460;BME280;50828;53.756;21.140;2023-08-31T13:28:35;99067.27;;;19.79;62.84
64460;BME280;50828;53.756;21.140;2023-08-31T13:33:42;99063.00;;;19.85;62.96
64460;BME280;50828;53.756;21.140;2023-08-31T13:38:49;99063.02;;;19.92;62.98
64460;BME280;50828;53.756;21.140;2023-08-31T13:43:57;99063.23;;;20.01;62.76
64460;BME280;50828;53.756;21.140;2023-08-31T13:49:04;99067.80;;;20.08;62.57
64460;BME280;50828;53.756;21.140;2023-08-31T13:54:11;99072.20;;;20.12;62.44
64460;BME280;50828;53.756;21.140;2023-08-31T13:59:19;99072.27;;;20.19;61.98
64460;BME280;50828;53.756;21.140;2023-08-31T14:04:26;99075.50;;;20.24;61.13
64460;BME280;50828;53.756;21.140;2023-08-31T14:09:33;99077.45;;;20.28;60.92
64460;BME280;50828;53.756;21.140;2023-08-31T14:14:41;99080.10;;;20.33;60.96
64460;BME280;50828;53.756;21.140;2023-08-31T14:19:49;99083.14;;;20.38;60.61
64460;BME280;50828;53.756;21.140;2023-08-31T14:24:56;99085.34;;;20.43;60.36
64460;BME280;50828;53.756;21.140;2023-08-31T14:30:04;99089.05;;;20.50;60.42
64460;BME280;50828;53.756;21.140;2023-08-31T14:35:12;99095.98;;;20.56;60.13
64460;BME280;50828;53.756;21.140;2023-08-31T14:40:19;99100.64;;;20.62;60.01
64460;BME280;50828;53.756;21.140;2023-08-31T14:45:27;99101.39;;;20.63;59.27
64460;BME280;50828;53.756;21.140;2023-08-31T14:50:34;99103.61;;;20.64;59.30
64460;BME280;50828;53.756;21.140;2023-08-31T14:55:41;99108.59;;;20.65;59.37
64460;BME280;50828;53.756;21.140;2023-08-31T15:00:56;99109.67;;;20.62;59.16
64460;BME280;50828;53.756;21.140;2023-08-31T15:06:04;99113.70;;;20.60;59.61
64460;BME280;50828;53.756;21.140;2023-08-31T15:11:11;99117.21;;;20.57;59.37
64460;BME280;50828;53.756;21.140;2023-08-31T15:16:20;99119.60;;;20.50;59.11
64460;BME280;50828;53.756;21.140;2023-08-31T15:21:28;99130.59;;;20.44;58.90
64460;BME280;50828;53.756;21.140;2023-08-31T15:26:36;99132.44;;;20.40;58.97
64460;BME280;50828;53.756;21.140;2023-08-31T15:31:43;99140.02;;;20.35;59.04
64460;BME280;50828;53.756;21.140;2023-08-31T15:36:51;99147.44;;;20.29;58.97
64460;BME280;50828;53.756;21.140;2023-08-31T15:41:58;99157.48;;;20.23;59.15
64460;BME280;50828;53.756;21.140;2023-08-31T15:47:07;99174.38;;;20.12;57.75
64460;BME280;50828;53.756;21.140;2023-08-31T15:52:14;99187.80;;;19.93;57.10
64460;BME280;50828;53.756;21.140;2023-08-31T15:57:21;99187.98;;;19.74;57.78
64460;BME280;50828;53.756;21.140;2023-08-31T16:02:28;99190.73;;;19.55;58.30
64460;BME280;50828;53.756;21.140;2023-08-31T16:07:36;99204.41;;;19.37;58.86
64460;BME280;50828;53.756;21.140;2023-08-31T16:12:46;99214.05;;;19.15;59.29
64460;BME280;50828;53.756;21.140;2023-08-31T16:17:53;99223.12;;;18.95;59.54
64460;BME280;50828;53.756;21.140;2023-08-31T16:23:00;99227.02;;;18.75;60.15
64460;BME280;50828;53.756;21.140;2023-08-31T16:28:09;99230.52;;;18.55;60.37
64460;BME280;50828;53.756;21.140;2023-08-31T16:33:17;99227.14;;;18.37;60.88
64460;BME280;50828;53.756;21.140;2023-08-31T16:38:25;99231.20;;;18.21;61.34
64460;BME280;50828;53.756;21.140;2023-08-31T16:43:32;99228.83;;;18.06;61.72
64460;BME280;50828;53.756;21.140;2023-08-31T16:48:39;99225.86;;;17.93;62.23
64460;BME280;50828;53.756;21.140;2023-08-31T16:53:46;99226.67;;;17.81;62.78
64460;BME280;50828;53.756;21.140;2023-08-31T16:58:56;99236.23;;;17.71;63.17
64460;BME280;50828;53.756;21.140;2023-08-31T17:04:04;99247.18;;;17.61;63.56
64460;BME280;50828;53.756;21.140;2023-08-31T17:09:12;99244.27;;;17.54;63.95
64460;BME280;50828;53.756;21.140;2023-08-31T17:14:19;99234.73;;;17.46;64.16
64460;BME280;50828;53.756;21.140;2023-08-31T17:19:28;99233.30;;;17.40;64.73
64460;BME280;50828;53.756;21.140;2023-08-31T17:24:35;99239.15;;;17.34;64.77
64460;BME280;50828;53.756;21.140;2023-08-31T17:29:42;99238.51;;;17.29;65.02
64460;BME280;50828;53.756;21.140;2023-08-31T17:34:50;99229.96;;;17.22;65.21
64460;BME280;50828;53.756;21.140;2023-08-31T17:39:57;99233.80;;;17.17;65.56
64460;BME280;50828;53.756;21.140;2023-08-31T17:45:05;99232.27;;;17.11;65.62
64460;BME280;50828;53.756;21.140;2023-08-31T17:50:13;99236.70;;;17.05;65.78
64460;BME280;50828;53.756;21.140;2023-08-31T17:55:20;99236.17;;;16.98;65.91
64460;BME280;50828;53.756;21.140;2023-08-31T18:00:27;99251.45;;;16.94;66.26
64460;BME280;50828;53.756;21.140;2023-08-31T18:05:35;99258.98;;;16.86;66.37
64460;BME280;50828;53.756;21.140;2023-08-31T18:10:42;99265.56;;;16.79;66.49
64460;BME280;50828;53.756;21.140;2023-08-31T18:15:51;99274.27;;;16.73;66.63
64460;BME280;50828;53.756;21.140;2023-08-31T18:21:01;99279.86;;;16.67;67.03
64460;BME280;50828;53.756;21.140;2023-08-31T18:26:09;99279.39;;;16.62;67.08
64460;BME280;50828;53.756;21.140;2023-08-31T18:31:16;99278.67;;;16.57;67.28
64460;BME280;50828;53.756;21.140;2023-08-31T18:36:23;99282.56;;;16.53;67.43
64460;BME280;50828;53.756;21.140;2023-08-31T18:41:30;99286.08;;;16.46;67.52
64460;BME280;50828;53.756;21.140;2023-08-31T18:46:38;99286.06;;;16.37;67.68
64460;BME280;50828;53.756;21.140;2023-08-31T18:51:46;99290.33;;;16.35;67.75
64460;BME280;50828;53.756;21.140;2023-08-31T18:56:53;99293.15;;;16.31;67.75
64460;BME280;50828;53.756;21.140;2023-08-31T19:02:00;99288.80;;;16.27;67.82
64460;BME280;50828;53.756;21.140;2023-08-31T19:07:08;99299.66;;;16.25;67.93
64460;BME280;50828;53.756;21.140;2023-08-31T19:12:16;99303.48;;;16.21;68.06
64460;BME280;50828;53.756;21.140;2023-08-31T19:17:23;99303.92;;;16.18;68.18
64460;BME280;50828;53.756;21.140;2023-08-31T19:22:31;99310.65;;;16.13;68.43
64460;BME280;50828;53.756;21.140;2023-08-31T19:27:38;99315.73;;;16.09;68.52
64460;BME280;50828;53.756;21.140;2023-08-31T19:32:45;99315.36;;;16.05;68.59
64460;BME280;50828;53.756;21.140;2023-08-31T19:37:54;99314.98;;;16.01;68.75
64460;BME280;50828;53.756;21.140;2023-08-31T19:43:01;99321.52;;;15.96;68.72
64460;BME280;50828;53.756;21.140;2023-08-31T19:48:09;99321.16;;;15.91;68.71
64460;BME280;50828;53.756;21.140;2023-08-31T19:53:17;99327.75;;;15.89;69.09
64460;BME280;50828;53.756;21.140;2023-08-31T19:58:24;99327.84;;;15.85;68.99
64460;BME280;50828;53.756;21.140;2023-08-31T20:03:33;99331.46;;;15.84;69.18
64460;BME280;50828;53.756;21.140;2023-08-31T20:08:44;99330.54;;;15.83;68.94
64460;BME280;50828;53.756;21.140;2023-08-31T20:13:51;99338.69;;;15.80;69.08
64460;BME280;50828;53.756;21.140;2023-08-31T20:19:01;99347.83;;;15.79;68.88
64460;BME280;50828;53.756;21.140;2023-08-31T20:24:09;99352.00;;;15.75;69.21
64460;BME280;50828;53.756;21.140;2023-08-31T20:29:17;99356.60;;;15.73;69.20
64460;BME280;50828;53.756;21.140;2023-08-31T20:34:27;99360.49;;;15.68;68.84
64460;BME280;50828;53.756;21.140;2023-08-31T20:44:53;99369.80;;;15.50;68.54
64460;BME280;50828;53.756;21.140;2023-08-31T20:50:03;99381.48;;;15.40;68.19
64460;BME280;50828;53.756;21.140;2023-08-31T20:55:11;99395.02;;;15.32;68.36
64460;BME280;50828;53.756;21.140;2023-08-31T21:00:19;99395.54;;;15.25;67.82
64460;BME280;50828;53.756;21.140;2023-08-31T21:05:26;99403.20;;;15.17;67.82
64460;BME280;50828;53.756;21.140;2023-08-31T21:10:34;99411.49;;;15.07;67.75
64460;BME280;50828;53.756;21.140;2023-08-31T21:15:41;99411.67;;;14.97;67.40
64460;BME280;50828;53.756;21.140;2023-08-31T21:20:48;99420.92;;;14.86;67.33
64460;BME280;50828;53.756;21.140;2023-08-31T21:25:57;99429.48;;;14.80;67.34
64460;BME280;50828;53.756;21.140;2023-08-31T21:31:03;99430.10;;;14.74;67.53
64460;BME280;50828;53.756;21.140;2023-08-31T21:36:10;99431.80;;;14.67;67.66
64460;BME280;50828;53.756;21.140;2023-08-31T21:41:18;99437.84;;;14.59;67.28
64460;BME280;50828;53.756;21.140;2023-08-31T21:46:27;99444.54;;;14.51;67.35
64460;BME280;50828;53.756;21.140;2023-08-31T21:51:35;99448.41;;;14.43;67.51
64460;BME280;50828;53.756;21.140;2023-08-31T22:02:02;99450.77;;;14.37;67.72
64460;BME280;50828;53.756;21.140;2023-08-31T22:07:10;99450.02;;;14.27;67.68
64460;BME280;50828;53.756;21.140;2023-08-31T22:12:19;99453.30;;;14.20;67.74
64460;BME280;50828;53.756;21.140;2023-08-31T22:17:27;99458.46;;;14.12;67.58
64460;BME280;50828;53.756;21.140;2023-08-31T22:22:35;99455.53;;;14.02;67.80
64460;BME280;50828;53.756;21.140;2023-08-31T22:27:43;99455.31;;;13.95;67.88
64460;BME280;50828;53.756;21.140;2023-08-31T22:32:51;99458.73;;;13.88;67.85
64460;BME280;50828;53.756;21.140;2023-08-31T22:38:00;99463.33;;;13.80;68.34
64460;BME280;50828;53.756;21.140;2023-08-31T22:43:09;99455.73;;;13.74;68.29
64460;BME280;50828;53.756;21.140;2023-08-31T22:48:16;99453.49;;;13.68;68.33
64460;BME280;50828;53.756;21.140;2023-08-31T22:53:25;99451.73;;;13.62;68.57
64460;BME280;50828;53.756;21.140;2023-08-31T22:58:34;99446.32;;;13.55;68.61
64460;BME280;50828;53.756;21.140;2023-08-31T23:03:43;99450.45;;;13.51;68.85
64460;BME280;50828;53.756;21.140;2023-08-31T23:08:50;99448.73;;;13.48;68.91
64460;BME280;50828;53.756;21.140;2023-08-31T23:13:58;99452.65;;;13.45;68.90
64460;BME280;50828;53.756;21.140;2023-08-31T23:19:08;99448.84;;;13.40;68.57
64460;BME280;50828;53.756;21.140;2023-08-31T23:24:19;99448.80;;;13.35;68.94
64460;BME280;50828;53.756;21.140;2023-08-31T23:29:46;99453.42;;;13.32;68.90
64460;BME280;50828;53.756;21.140;2023-08-31T23:34:54;99454.27;;;13.27;68.82
64460;BME280;50828;53.756;21.140;2023-08-31T23:45:21;99458.27;;;13.19;69.13
64460;BME280;50828;53.756;21.140;2023-08-31T23:50:27;99465.45;;;13.17;69.19
64460;BME280;50828;53.756;21.140;2023-08-31T23:55:41;99467.95;;;13.14;69.44
